Time;durP1;ratioP1;P1;durP2;ratioP2;P2;SDS_P1;SDS_P2;PMS_P1;PMS_P2;Temp;Humidity;BMP_temperature;BMP_pressure;BME280_temperature;BME280_humidity;BME280_pressure;Samples;Min_cycle;Max_cycle;Signal;HPM_P1;HPM_P2
2021/11/13 00:00:39;;;;;;;;;15.00;11.67;;;;;18.65;44.20;101160.31;5100339;27;45353;-58
2021/11/13 00:03:06;;;;;;;;;15.00;13.00;;;;;18.67;44.03;101169.19;5099846;27;46383;-59
2021/11/13 00:05:32;;;;;;;;;14.00;13.33;;;;;18.66;44.13;101164.72;5100016;27;45382;-58
2021/11/13 00:07:57;;;;;;;;;16.67;16.67;;;;;18.67;44.33;101158.53;5098782;27;45308;-58
2021/11/13 00:10:27;;;;;;;;;14.67;13.67;;;;;18.65;44.22;101154.09;5099971;27;45468;-58
2021/11/13 00:12:54;;;;;;;;;16.00;14.00;;;;;18.66;44.24;101150.53;5099849;27;47064;-58
2021/11/13 00:15:21;;;;;;;;;13.33;12.00;;;;;18.65;44.09;101156.78;5099771;27;45199;-58
2021/11/13 00:17:48;;;;;;;;;13.67;12.33;;;;;18.65;44.21;101157.66;5099780;27;45457;-58
2021/11/13 00:20:13;;;;;;;;;12.33;11.00;;;;;18.65;44.32;101154.09;5099885;27;45416;-58
2021/11/13 00:22:39;;;;;;;;;13.67;12.67;;;;;18.63;44.57;101160.31;5099538;27;47008;-58
2021/11/13 00:25:05;;;;;;;;;16.33;11.67;;;;;18.64;44.27;101161.19;5099774;27;45364;-58
2021/11/13 00:27:31;;;;;;;;;16.00;14.33;;;;;18.63;44.33;101162.13;5099793;27;45268;-57
2021/11/13 00:29:56;;;;;;;;;15.67;14.00;;;;;18.62;44.42;101153.22;5099966;27;45390;-58
2021/11/13 00:32:22;;;;;;;;;13.00;11.33;;;;;18.61;44.47;101148.78;5099411;27;47132;-58
2021/11/13 00:34:47;;;;;;;;;16.67;13.67;;;;;18.62;44.47;101153.22;5099544;27;45356;-58
2021/11/13 00:37:13;;;;;;;;;14.00;12.33;;;;;18.60;44.28;101136.38;5099495;27;45322;-58
2021/11/13 00:39:38;;;;;;;;;14.00;11.33;;;;;18.60;44.34;101147.03;5099811;27;45362;-59
2021/11/13 00:42:04;;;;;;;;;14.33;11.33;;;;;18.60;44.29;101146.16;5099322;27;45356;-57
2021/11/13 00:44:29;;;;;;;;;11.00;10.00;;;;;18.59;44.29;101139.94;5099750;27;45239;-58
2021/11/13 00:46:55;;;;;;;;;11.00;11.00;;;;;18.58;44.29;101146.19;5098939;27;45422;-58
2021/11/13 00:49:21;;;;;;;;;13.33;12.00;;;;;18.57;44.52;101136.41;5099423;27;45599;-59
2021/11/13 00:51:46;;;;;;;;;14.33;11.33;;;;;18.57;44.33;101149.72;5099324;27;47194;-58
2021/11/13 00:54:12;;;;;;;;;11.33;10.00;;;;;18.56;44.30;101139.97;5099312;27;45362;-57
2021/11/13 00:56:38;;;;;;;;;12.67;11.67;;;;;18.56;44.62;101133.78;5099484;27;45485;-58
2021/11/13 00:59:03;;;;;;;;;12.33;11.67;;;;;18.56;44.36;101142.66;5098573;27;45293;-58
2021/11/13 01:01:29;;;;;;;;;12.00;9.00;;;;;18.56;44.72;101149.75;5098676;27;47014;-58
2021/11/13 01:03:55;;;;;;;;;10.00;10.00;;;;;18.55;44.35;101143.53;5099076;27;45331;-58
2021/11/13 01:06:20;;;;;;;;;10.67;10.33;;;;;18.55;44.40;101155.97;5099380;27;45254;-58
2021/11/13 01:08:47;;;;;;;;;14.00;12.67;;;;;18.54;44.64;101152.44;5099339;27;45437;-59
2021/11/13 01:11:13;;;;;;;;;13.00;10.00;;;;;18.54;44.45;101162.19;5098966;27;46356;-58
2021/11/13 01:13:39;;;;;;;;;11.00;10.67;;;;;18.52;44.61;101152.44;5099021;27;45698;-58
2021/11/13 01:16:04;;;;;;;;;14.67;12.00;;;;;18.52;44.41;101148.91;5099049;27;45207;-59
2021/11/13 01:18:30;;;;;;;;;11.00;10.00;;;;;18.51;44.63;101148.00;5099163;27;45217;-58
2021/11/13 01:20:55;;;;;;;;;10.33;9.33;;;;;18.50;44.74;101142.72;5098529;27;46260;-58
2021/11/13 01:23:20;;;;;;;;;11.67;11.67;;;;;18.50;44.64;101148.03;5097512;27;45778;-57
2021/11/13 01:25:46;;;;;;;;;15.67;13.00;;;;;18.49;44.81;101146.25;5098874;27;45729;-58
2021/11/13 01:28:12;;;;;;;;;14.00;10.67;;;;;18.50;44.63;101150.69;5099129;27;45238;-58
2021/11/13 01:30:37;;;;;;;;;10.67;9.67;;;;;18.48;44.50;101153.38;5098416;27;45978;-58
2021/11/13 01:33:04;;;;;;;;;11.67;10.67;;;;;18.48;44.81;101149.81;5098768;27;45413;-58
2021/11/13 01:35:29;;;;;;;;;11.33;11.33;;;;;18.49;44.48;101159.56;5098441;27;45407;-57
2021/11/13 01:37:55;;;;;;;;;10.67;10.00;;;;;18.47;44.78;101151.59;5098468;27;45378;-57
2021/11/13 01:40:24;;;;;;;;;10.33;9.33;;;;;18.47;44.91;101151.59;5098587;27;46955;-57
2021/11/13 01:42:50;;;;;;;;;13.67;12.33;;;;;18.45;44.70;101149.84;5098663;27;45325;-57
2021/11/13 01:45:17;;;;;;;;;15.00;11.00;;;;;18.45;44.92;101145.41;5098599;27;45234;-58
2021/11/13 01:47:43;;;;;;;;;11.33;10.67;;;;;18.45;44.88;101147.16;5098727;27;45461;-57
2021/11/13 01:50:21;;;;;;;;;13.00;11.33;;;;;18.44;44.53;101143.66;5098140;27;47085;-58
2021/11/13 01:52:49;;;;;;;;;15.00;13.33;;;;;18.44;44.76;101141.00;5098202;27;45180;-57
2021/11/13 01:55:16;;;;;;;;;10.67;10.33;;;;;18.44;44.77;101134.78;5098189;27;45206;-58
2021/11/13 01:57:49;;;;;;;;;11.67;10.67;;;;;18.44;45.04;101142.75;5098708;27;45352;-58
2021/11/13 02:00:25;;;;;;;;;14.00;13.00;;;;;18.42;44.87;101128.59;5098191;27;46210;-58
2021/11/13 02:02:50;;;;;;;;;12.33;12.00;;;;;18.42;44.75;101137.47;5098074;27;45320;-58
2021/11/13 02:05:16;;;;;;;;;15.00;11.00;;;;;18.44;44.57;101137.44;5098345;27;45214;-57
2021/11/13 02:07:42;;;;;;;;;12.33;9.33;;;;;18.42;45.01;101131.25;5098427;27;45463;-57
2021/11/13 02:10:09;;;;;;;;;10.00;10.00;;;;;18.43;44.89;101130.34;5097938;27;46159;-58
2021/11/13 02:12:34;;;;;;;;;12.67;10.33;;;;;18.42;44.76;101132.13;5101333;27;45482;-58
2021/11/13 02:15:00;;;;;;;;;11.33;11.33;;;;;18.42;45.18;101137.47;5101963;27;45392;-58
2021/11/13 02:17:26;;;;;;;;;13.00;11.67;;;;;18.42;45.08;101120.59;5101876;27;45477;-57
2021/11/13 02:19:51;;;;;;;;;10.00;9.33;;;;;18.42;44.87;101118.81;5101510;27;46595;-58
2021/11/13 02:22:17;;;;;;;;;10.00;9.67;;;;;18.41;44.81;101122.38;5101414;27;45159;-58
2021/11/13 02:24:45;;;;;;;;;12.33;10.33;;;;;18.41;44.88;101122.38;5101759;27;45322;-57
2021/11/13 02:27:11;;;;;;;;;12.67;11.33;;;;;18.39;44.99;101117.06;5101971;27;45255;-58
2021/11/13 02:29:38;;;;;;;;;13.33;11.67;;;;;18.40;44.97;101116.16;5101467;27;46829;-58
2021/11/13 02:32:04;;;;;;;;;12.67;10.67;;;;;18.39;44.93;101125.06;5101529;27;45348;-58
2021/11/13 02:34:29;;;;;;;;;14.33;10.00;;;;;18.38;45.16;101131.25;5101502;27;45320;-59
2021/11/13 02:36:55;;;;;;;;;11.00;10.00;;;;;18.38;45.20;101133.06;5101369;27;45424;-58
2021/11/13 02:39:21;;;;;;;;;16.33;11.00;;;;;18.38;45.36;101131.25;5101379;27;46045;-58
2021/11/13 02:41:48;;;;;;;;;13.00;11.00;;;;;18.37;44.98;101126.84;5100326;27;45996;-58
2021/11/13 02:44:16;;;;;;;;;11.67;10.33;;;;;18.37;44.99;101121.53;5101519;27;45218;-57
2021/11/13 02:46:42;;;;;;;;;9.67;8.67;;;;;18.38;45.03;101125.06;5101498;27;45590;-58
2021/11/13 02:49:07;;;;;;;;;12.67;10.33;;;;;18.37;45.00;101124.19;5100865;27;46288;-57
2021/11/13 02:51:33;;;;;;;;;12.00;10.33;;;;;18.38;45.16;101119.75;5101269;27;45463;-57
2021/11/13 02:53:58;;;;;;;;;11.00;11.00;;;;;18.37;45.14;101120.63;5100226;27;45337;-57
2021/11/13 02:56:24;;;;;;;;;12.33;8.33;;;;;18.35;44.92;101119.75;5101475;27;45679;-57
2021/11/13 02:58:50;;;;;;;;;10.00;10.00;;;;;18.37;45.21;101117.97;5099865;27;46269;-57
2021/11/13 03:01:19;;;;;;;;;9.33;9.33;;;;;18.36;45.05;101117.09;5101013;27;45364;-58
2021/11/13 03:03:50;;;;;;;;;13.67;11.00;;;;;18.36;45.31;101117.09;5101068;27;45437;-57
2021/11/13 03:06:16;;;;;;;;;11.00;9.33;;;;;18.36;45.27;101122.41;5101052;27;45632;-57
2021/11/13 03:08:42;;;;;;;;;9.33;9.00;;;;;18.34;45.19;101112.69;5100768;27;46210;-58
2021/11/13 03:11:10;;;;;;;;;11.00;9.33;;;;;18.36;45.32;101127.72;5100855;27;45285;-58
2021/11/13 03:13:37;;;;;;;;;11.33;11.33;;;;;18.35;45.45;101125.97;5101113;27;45201;-57
2021/11/13 03:16:05;;;;;;;;;10.33;10.00;;;;;18.35;45.07;101112.66;5101087;27;45393;-57
2021/11/13 03:18:31;;;;;;;;;9.00;8.33;;;;;18.35;45.23;101114.44;5100686;27;46328;-57
2021/11/13 03:20:57;;;;;;;;;10.00;8.67;;;;;18.34;45.12;101113.56;5100615;27;45514;-58
2021/11/13 03:23:24;;;;;;;;;13.00;11.33;;;;;18.34;45.25;101113.56;5099971;27;45439;-57
2021/11/13 03:26:02;;;;;;;;;12.00;10.67;;;;;18.34;45.32;101108.22;5101054;27;45453;-57
2021/11/13 03:28:29;;;;;;;;;13.33;11.00;;;;;18.33;45.40;101106.47;5100533;27;47075;-56
2021/11/13 03:30:55;;;;;;;;;11.00;10.00;;;;;18.33;45.28;101114.47;5100399;27;45405;-57
2021/11/13 03:33:21;;;;;;;;;12.33;9.33;;;;;18.32;45.26;101110.03;5100565;27;45515;-57
2021/11/13 03:35:47;;;;;;;;;11.00;10.33;;;;;18.32;45.50;101110.03;5100705;27;45528;-57
2021/11/13 03:38:17;;;;;;;;;12.33;9.00;;;;;18.34;45.54;101112.69;5100212;27;45354;-58
2021/11/13 03:40:44;;;;;;;;;11.67;8.67;;;;;18.33;45.25;101106.47;5100367;27;45487;-56
2021/11/13 03:43:12;;;;;;;;;7.33;7.00;;;;;18.32;45.41;101110.03;5100624;27;45350;-54
2021/11/13 03:45:38;;;;;;;;;9.67;9.00;;;;;18.31;45.31;101100.28;5100530;27;45507;-57
2021/11/13 03:48:05;;;;;;;;;11.33;9.67;;;;;18.31;45.57;101096.75;5100164;27;47238;-57
2021/11/13 03:50:31;;;;;;;;;10.67;10.67;;;;;18.31;45.40;101108.28;5100309;27;45166;-57
2021/11/13 03:52:57;;;;;;;;;8.33;7.00;;;;;18.31;45.56;101102.94;5100336;27;45208;-57
2021/11/13 03:55:24;;;;;;;;;8.00;8.00;;;;;18.31;45.51;101100.28;5100431;27;45230;-57
2021/11/13 03:57:50;;;;;;;;;11.33;8.33;;;;;18.32;45.51;101107.38;5100030;27;46186;-58
2021/11/13 04:00:17;;;;;;;;;11.00;9.00;;;;;18.31;45.60;101102.06;5099812;27;45331;-58
2021/11/13 04:02:46;;;;;;;;;10.00;7.33;;;;;18.31;45.71;101107.38;5100061;27;45268;-57
2021/11/13 04:05:12;;;;;;;;;9.00;8.00;;;;;18.31;45.59;101110.03;5100387;27;45538;-58
2021/11/13 04:07:37;;;;;;;;;9.00;8.00;;;;;18.30;45.48;101111.81;5099854;27;47263;-57
2021/11/13 04:10:06;;;;;;;;;8.00;7.67;;;;;18.30;45.52;101114.47;5099708;27;45411;-57
2021/11/13 04:12:32;;;;;;;;;9.33;8.67;;;;;18.30;45.57;101109.16;5100149;27;45222;-57
2021/11/13 04:14:58;;;;;;;;;11.00;9.67;;;;;18.31;45.71;101108.28;5099812;27;45245;-58
2021/11/13 04:17:23;;;;;;;;;7.00;7.00;;;;;18.31;45.82;101115.38;5099596;27;46829;-56
2021/11/13 04:19:48;;;;;;;;;11.67;7.67;;;;;18.30;45.61;101117.13;5099806;27;45272;-58
2021/11/13 04:22:14;;;;;;;;;7.00;7.00;;;;;18.30;45.66;101118.94;5099982;27;45490;-57
2021/11/13 04:24:39;;;;;;;;;8.00;7.00;;;;;18.28;45.65;101109.19;5100015;27;45259;-57
2021/11/13 04:27:05;;;;;;;;;8.00;7.00;;;;;18.28;45.73;101119.81;5099664;27;46100;-57
2021/11/13 04:29:30;;;;;;;;;3.00;3.00;;;;;18.29;45.49;101118.06;5099755;27;45330;-56
2021/11/13 04:31:56;;;;;;;;;7.00;6.67;;;;;18.28;45.90;101113.59;5099716;27;45254;-57
2021/11/13 04:34:23;;;;;;;;;1.67;0.00;;;;;18.28;45.81;101110.94;5100158;27;45479;-58
2021/11/13 04:36:54;;;;;;;;;7.67;6.33;;;;;18.28;45.58;101116.25;5099428;27;46192;-57
2021/11/13 04:39:23;;;;;;;;;6.67;6.00;;;;;18.28;45.61;101116.25;5099354;27;45218;-57
2021/11/13 04:41:49;;;;;;;;;7.00;6.00;;;;;18.28;45.90;101113.59;5099488;27;45313;-58
2021/11/13 04:44:15;;;;;;;;;6.67;5.67;;;;;18.26;45.91;101110.97;5099928;27;45488;-57
2021/11/13 04:46:41;;;;;;;;;8.33;6.00;;;;;18.27;45.80;101117.19;5099014;27;46455;-58
2021/11/13 04:49:06;;;;;;;;;8.33;7.00;;;;;18.27;45.84;101122.50;5099392;27;45328;-58
2021/11/13 04:51:32;;;;;;;;;10.00;7.67;;;;;18.26;45.73;101115.41;5099559;27;45207;-57
2021/11/13 04:53:57;;;;;;;;;6.00;6.00;;;;;18.26;45.91;101108.31;5099852;27;45222;-57
2021/11/13 04:56:23;;;;;;;;;7.33;7.33;;;;;18.25;45.64;101113.66;5099200;27;46163;-57
2021/11/13 04:58:48;;;;;;;;;7.33;6.67;;;;;18.25;45.87;101111.84;5099149;27;45221;-58
2021/11/13 05:01:14;;;;;;;;;7.67;6.00;;;;;18.25;45.47;101111.84;5099097;27;45221;-57
2021/11/13 05:03:39;;;;;;;;;5.67;5.00;;;;;18.25;45.97;101118.97;5099284;27;45305;-58
2021/11/13 05:06:05;;;;;;;;;5.00;5.00;;;;;18.26;45.86;101126.03;5098890;27;46283;-57
2021/11/13 05:08:30;;;;;;;;;8.00;5.00;;;;;18.25;45.92;101113.66;5098931;27;45278;-57
2021/11/13 05:10:56;;;;;;;;;6.33;5.00;;;;;18.23;45.74;101110.97;5099054;27;45450;-58
2021/11/13 05:13:21;;;;;;;;;7.00;6.67;;;;;18.24;45.78;101111.88;5099156;27;45227;-58
2021/11/13 05:15:47;;;;;;;;;8.33;6.00;;;;;18.25;45.86;101113.66;5098912;27;45995;-58
2021/11/13 05:18:13;;;;;;;;;7.33;5.00;;;;;18.24;45.86;101111.88;5098894;27;45300;-57
2021/11/13 05:20:38;;;;;;;;;5.33;5.33;;;;;18.25;45.88;101116.31;5098961;27;45328;-57
2021/11/13 05:23:04;;;;;;;;;7.00;7.00;;;;;18.24;45.98;101111.88;5099010;27;45258;-58
2021/11/13 05:25:30;;;;;;;;;9.00;6.33;;;;;18.22;45.88;101101.25;5098571;27;46890;-58
2021/11/13 05:27:55;;;;;;;;;7.33;4.33;;;;;18.23;46.03;101115.44;5098823;27;45393;-57
2021/11/13 05:30:23;;;;;;;;;7.00;7.00;;;;;18.23;45.75;101118.97;5098844;27;45434;-58
2021/11/13 05:32:49;;;;;;;;;7.00;6.00;;;;;18.22;45.92;101114.56;5098879;27;45183;-57
2021/11/13 05:35:15;;;;;;;;;8.00;6.00;;;;;18.24;46.17;101122.50;5098511;27;46224;-58
2021/11/13 05:37:41;;;;;;;;;7.00;4.33;;;;;18.23;45.98;101128.75;5098468;27;45478;-58
2021/11/13 05:40:09;;;;;;;;;6.33;5.00;;;;;18.23;46.03;101126.09;5098690;27;45404;-57
2021/11/13 05:42:35;;;;;;;;;9.67;7.00;;;;;18.22;46.02;101127.84;5098738;27;45323;-58
2021/11/13 05:45:02;;;;;;;;;6.33;5.00;;;;;18.22;45.81;101130.53;5098324;27;46937;-57
2021/11/13 05:47:27;;;;;;;;;4.67;4.67;;;;;18.22;45.91;101126.97;5097794;27;45304;-58
2021/11/13 05:49:53;;;;;;;;;4.00;4.00;;;;;18.21;45.98;101127.88;5098303;27;45176;-58
2021/11/13 05:52:18;;;;;;;;;5.33;5.33;;;;;18.20;45.98;101116.34;5098921;27;45160;-58
2021/11/13 05:54:44;;;;;;;;;6.00;5.33;;;;;18.21;46.05;101117.22;5098376;27;47096;-57
2021/11/13 05:57:10;;;;;;;;;5.00;4.00;;;;;18.21;45.95;101122.56;5098691;27;45234;-57
2021/11/13 05:59:35;;;;;;;;;4.33;4.33;;;;;18.21;46.21;101122.56;5098246;27;45280;-58
2021/11/13 06:02:01;;;;;;;;;7.00;4.67;;;;;18.21;46.07;101125.22;5098604;27;45271;-58
2021/11/13 06:04:26;;;;;;;;;6.33;4.33;;;;;18.20;46.28;101124.31;5098476;27;46250;-58
2021/11/13 06:06:51;;;;;;;;;6.67;6.00;;;;;18.20;46.16;101128.75;5098460;27;45379;-58
2021/11/13 06:09:17;;;;;;;;;4.00;4.00;;;;;18.20;45.97;101132.31;5098621;27;45653;-58
2021/11/13 06:11:42;;;;;;;;;4.33;4.00;;;;;18.19;45.98;101129.66;5097254;27;45531;-58
2021/11/13 06:14:08;;;;;;;;;5.33;5.33;;;;;18.17;46.16;101125.22;5098138;27;46283;-58
2021/11/13 06:16:33;;;;;;;;;4.33;4.33;;;;;18.17;46.23;101133.22;5098150;27;45403;-57
2021/11/13 06:18:58;;;;;;;;;4.00;3.33;;;;;18.18;46.47;101134.09;5098253;27;45377;-57
2021/11/13 06:21:24;;;;;;;;;4.33;4.33;;;;;18.18;46.12;101131.44;5098139;27;45336;-58
2021/11/13 06:23:49;;;;;;;;;5.67;5.33;;;;;18.17;46.37;101130.53;5097818;27;46609;-58
2021/11/13 06:26:15;;;;;;;;;6.67;5.00;;;;;18.18;46.09;101136.75;5097881;27;45527;-58
2021/11/13 06:28:41;;;;;;;;;5.67;5.00;;;;;18.19;46.36;101145.63;5098073;27;45331;-58
2021/11/13 06:31:08;;;;;;;;;4.33;3.00;;;;;18.17;46.17;101137.63;5097970;27;45222;-58
2021/11/13 06:33:34;;;;;;;;;3.33;2.00;;;;;18.15;46.31;101140.28;5097769;27;47192;-58
2021/11/13 06:35:59;;;;;;;;;4.00;4.00;;;;;18.15;46.47;101145.59;5097493;27;45323;-58
2021/11/13 06:38:24;;;;;;;;;5.33;4.33;;;;;18.15;46.37;101145.59;5097581;27;45451;-58
2021/11/13 06:40:50;;;;;;;;;5.67;4.33;;;;;18.15;46.27;101150.03;5098243;27;45291;-58
2021/11/13 06:43:15;;;;;;;;;4.00;3.33;;;;;18.15;46.35;101145.59;5097820;27;47007;-58
2021/11/13 06:45:41;;;;;;;;;4.67;3.67;;;;;18.16;46.26;101152.72;5097914;27;45234;-58
2021/11/13 06:48:07;;;;;;;;;3.00;3.00;;;;;18.16;46.23;101160.69;5097956;27;45366;-58
2021/11/13 06:50:33;;;;;;;;;3.33;3.00;;;;;18.16;46.38;101157.13;5097960;27;45541;-57
2021/11/13 06:52:59;;;;;;;;;3.67;3.67;;;;;18.13;46.46;101158.03;5097688;27;46576;-58
2021/11/13 06:55:25;;;;;;;;;6.67;3.00;;;;;18.14;46.24;101165.13;5097382;27;45335;-58
2021/11/13 06:57:50;;;;;;;;;5.00;4.00;;;;;18.15;46.18;101161.56;5098469;27;45254;-58
2021/11/13 07:00:18;;;;;;;;;4.33;3.00;;;;;18.17;46.23;101165.13;5101225;27;45415;-57
2021/11/13 07:02:44;;;;;;;;;4.00;4.00;;;;;18.17;46.23;101165.13;5099714;27;47467;-58
2021/11/13 07:05:11;;;;;;;;;3.00;3.00;;;;;18.19;46.13;101172.25;5100798;27;45495;-57
2021/11/13 07:07:37;;;;;;;;;4.00;4.00;;;;;18.21;46.10;101173.97;5101232;27;45242;-58
2021/11/13 07:10:06;;;;;;;;;3.00;3.00;;;;;18.23;45.96;101172.19;5100936;27;45461;-58
2021/11/13 07:12:31;;;;;;;;;2.67;2.00;;;;;18.25;46.04;101177.50;5100769;27;46148;-58
2021/11/13 07:14:57;;;;;;;;;3.33;3.00;;;;;18.26;46.04;101182.81;5100917;27;45387;-58
2021/11/13 07:17:22;;;;;;;;;4.00;4.00;;;;;18.29;45.68;101187.25;5101158;27;45657;-58
2021/11/13 07:19:48;;;;;;;;;3.00;3.00;;;;;18.30;45.97;101191.66;5100950;27;45415;-58
2021/11/13 07:22:15;;;;;;;;;4.00;2.00;;;;;18.32;45.97;101194.31;5100731;27;45721;-57
2021/11/13 07:24:41;;;;;;;;;3.00;3.00;;;;;18.33;46.00;101202.28;5100598;27;45207;-58
2021/11/13 07:27:08;;;;;;;;;3.67;2.00;;;;;18.34;45.95;101206.69;5100764;27;45559;-58
2021/11/13 07:29:37;;;;;;;;;4.00;3.67;;;;;18.37;46.12;101208.47;5100890;27;45404;-58
2021/11/13 07:32:03;;;;;;;;;4.33;3.00;;;;;18.38;45.86;101210.25;5100523;27;45322;-59
2021/11/13 07:34:29;;;;;;;;;4.33;2.67;;;;;18.39;46.12;101218.22;5100397;27;45523;-58
2021/11/13 07:36:54;;;;;;;;;3.00;3.00;;;;;18.41;45.93;101218.19;5100548;27;45205;-58
2021/11/13 07:39:20;;;;;;;;;3.67;3.67;;;;;18.43;46.05;101213.75;5100901;27;45462;-58
2021/11/13 07:41:45;;;;;;;;;3.67;2.00;;;;;18.43;46.15;101213.75;5099607;27;45951;-58
2021/11/13 07:44:11;;;;;;;;;2.00;2.00;;;;;18.44;46.18;101219.94;5100347;27;45186;-58
2021/11/13 07:46:36;;;;;;;;;3.00;2.00;;;;;18.45;46.12;101216.38;5100465;27;45263;-58
2021/11/13 07:49:03;;;;;;;;;4.67;3.00;;;;;18.46;46.32;101221.72;5100630;27;45508;-58
2021/11/13 07:51:28;;;;;;;;;4.33;3.33;;;;;18.48;46.26;101227.91;5099832;27;46319;-57
2021/11/13 07:53:54;;;;;;;;;3.67;2.67;;;;;18.49;46.14;101226.09;5100331;27;45405;-57
2021/11/13 07:56:19;;;;;;;;;4.00;2.67;;;;;18.50;45.93;101230.56;5100307;27;45481;-57
2021/11/13 07:58:45;;;;;;;;;3.00;3.00;;;;;18.51;46.22;101224.31;5100140;27;45324;-58
2021/11/13 08:01:10;;;;;;;;;5.33;4.00;;;;;18.52;46.13;101231.41;5099700;27;47112;-57
2021/11/13 08:03:36;;;;;;;;;2.00;2.00;;;;;18.53;46.28;101235.84;5100120;27;45416;-57
2021/11/13 08:06:01;;;;;;;;;5.00;4.00;;;;;18.54;46.26;101231.41;5100103;27;45344;-57
2021/11/13 08:08:26;;;;;;;;;5.33;4.33;;;;;18.55;45.97;101236.72;5099810;27;45401;-58
2021/11/13 08:10:52;;;;;;;;;5.00;5.00;;;;;18.55;46.20;101239.38;5099678;27;47106;-57
2021/11/13 08:13:19;;;;;;;;;7.00;7.00;;;;;18.56;46.18;101235.81;5099758;27;45210;-57
2021/11/13 08:15:45;;;;;;;;;6.33;5.00;;;;;18.57;46.17;101234.91;5099949;27;45197;-57
2021/11/13 08:18:11;;;;;;;;;9.33;7.00;;;;;18.58;46.26;101247.34;5099970;27;45446;-58
2021/11/13 08:20:41;;;;;;;;;11.67;8.33;;;;;18.59;46.41;101248.25;5099379;27;46043;-57
2021/11/13 08:23:10;;;;;;;;;8.00;7.67;;;;;18.59;45.94;101241.09;5099569;27;45485;-57
2021/11/13 08:25:38;;;;;;;;;8.33;8.33;;;;;18.60;46.13;101242.91;5099625;27;45254;-57
2021/11/13 08:28:05;;;;;;;;;10.33;9.67;;;;;18.60;46.16;101242.00;5099814;27;45328;-57
2021/11/13 08:30:33;;;;;;;;;10.33;9.33;;;;;18.61;46.47;101238.47;5099287;27;47187;-57
2021/11/13 08:32:58;;;;;;;;;9.67;9.67;;;;;18.61;46.32;101241.97;5099552;27;45427;-58
2021/11/13 08:35:24;;;;;;;;;9.33;9.33;;;;;18.62;46.43;101241.09;5099229;27;45211;-57
2021/11/13 08:37:49;;;;;;;;;9.33;9.33;;;;;18.62;46.45;101241.09;5098229;27;45325;-57
2021/11/13 08:40:16;;;;;;;;;8.67;7.00;;;;;18.63;46.23;101245.50;5099291;27;47061;-57
2021/11/13 08:42:42;;;;;;;;;11.33;9.00;;;;;18.63;46.09;101250.84;5097946;27;45170;-58
2021/11/13 08:45:08;;;;;;;;;8.00;8.00;;;;;18.65;46.20;101247.31;5099402;27;45347;-58
2021/11/13 08:47:36;;;;;;;;;8.67;8.67;;;;;18.65;46.26;101252.63;5099380;27;45596;-57
2021/11/13 08:50:06;;;;;;;;;10.00;8.33;;;;;18.65;46.43;101255.28;5098863;27;47240;-57
2021/11/13 08:52:33;;;;;;;;;6.00;6.00;;;;;18.63;46.28;101249.97;5098959;27;45447;-57
2021/11/13 08:54:59;;;;;;;;;7.33;7.00;;;;;18.65;46.15;101257.94;5099184;27;45360;-57
2021/11/13 08:57:25;;;;;;;;;8.00;7.33;;;;;18.65;46.03;101256.19;5099207;27;45456;-58
2021/11/13 08:59:50;;;;;;;;;6.33;6.00;;;;;18.66;46.15;101260.59;5098891;27;45388;-57
2021/11/13 09:02:20;;;;;;;;;6.67;6.67;;;;;18.66;46.51;101263.25;5098999;27;45373;-57
2021/11/13 09:04:47;;;;;;;;;6.67;5.67;;;;;18.67;46.00;101257.06;5099190;27;45206;-57
2021/11/13 09:07:13;;;;;;;;;6.33;6.33;;;;;18.68;46.29;101260.56;5099089;27;45417;-58
2021/11/13 09:09:38;;;;;;;;;6.00;5.67;;;;;18.68;46.26;101260.56;5098686;27;46266;-58
2021/11/13 09:12:07;;;;;;;;;6.33;6.33;;;;;18.67;46.43;101254.38;5098873;27;45297;-57
2021/11/13 09:14:33;;;;;;;;;7.00;7.00;;;;;18.69;46.36;101251.69;5099361;27;45198;-57
2021/11/13 09:17:00;;;;;;;;;5.67;5.33;;;;;18.69;46.12;101257.91;5099308;27;45227;-57
2021/11/13 09:19:26;;;;;;;;;7.00;6.33;;;;;18.69;46.33;101255.25;5098467;27;48179;-57
2021/11/13 09:21:52;;;;;;;;;5.67;5.67;;;;;18.71;46.21;101255.25;5098026;27;45301;-58
2021/11/13 09:24:22;;;;;;;;;7.67;6.33;;;;;18.72;46.49;101257.00;5098772;27;45360;-58
2021/11/13 09:26:48;;;;;;;;;5.33;5.33;;;;;18.73;46.29;101253.44;5098920;27;45201;-57
2021/11/13 09:29:14;;;;;;;;;9.00;5.67;;;;;18.74;46.51;101268.53;5098424;27;47051;-59
2021/11/13 09:31:42;;;;;;;;;6.00;5.33;;;;;18.74;46.71;101255.22;5098581;27;45545;-58
2021/11/13 09:34:10;;;;;;;;;5.67;4.33;;;;;18.74;46.76;101260.56;5098740;27;45297;-58
2021/11/13 09:36:36;;;;;;;;;4.33;4.33;;;;;18.74;46.61;101255.22;5098326;27;45370;-57
2021/11/13 09:39:03;;;;;;;;;5.00;5.00;;;;;18.75;46.74;101256.97;5098155;27;45454;-58
2021/11/13 09:41:30;;;;;;;;;5.67;5.33;;;;;18.75;46.66;101265.84;5098322;27;45265;-58
2021/11/13 09:43:56;;;;;;;;;6.33;5.00;;;;;18.77;46.77;101268.50;5097315;27;45382;-57
2021/11/13 09:46:22;;;;;;;;;4.33;4.33;;;;;18.78;46.53;101267.63;5098738;27;45301;-58
2021/11/13 09:48:54;;;;;;;;;5.67;5.67;;;;;18.78;46.93;101272.06;5097097;27;47076;-58
2021/11/13 09:51:21;;;;;;;;;6.00;4.67;;;;;18.78;46.93;101259.63;5098541;27;45210;-58
2021/11/13 09:53:47;;;;;;;;;6.33;5.00;;;;;18.79;46.49;101266.72;5098594;27;45260;-58
2021/11/13 09:56:13;;;;;;;;;6.00;6.00;;;;;18.80;46.73;101267.59;5098259;27;45566;-58
2021/11/13 09:58:40;;;;;;;;;5.67;4.33;;;;;18.80;46.76;101271.16;5098357;27;46083;-58
2021/11/13 10:01:05;;;;;;;;;2.67;2.67;;;;;18.80;46.36;101271.16;5098098;27;45311;-58
2021/11/13 10:03:31;;;;;;;;;5.33;5.33;;;;;18.81;46.51;101272.00;5098272;27;45328;-58
2021/11/13 10:06:00;;;;;;;;;7.67;5.00;;;;;18.81;46.54;101278.22;5098502;27;45339;-58
2021/11/13 10:08:27;;;;;;;;;5.33;4.33;;;;;18.80;46.44;101279.16;5097978;27;46096;-58
2021/11/13 10:11:02;;;;;;;;;4.67;4.67;;;;;18.82;46.53;101285.34;5098032;27;45358;-57
2021/11/13 10:13:38;;;;;;;;;8.00;5.67;;;;;18.81;46.25;101280.00;5098076;27;45445;-57
2021/11/13 10:16:11;;;;;;;;;5.67;5.00;;;;;18.83;46.42;101281.75;5098169;27;45439;-57
2021/11/13 10:18:42;;;;;;;;;5.67;3.67;;;;;18.82;46.47;101293.34;5097649;27;45351;-57
2021/11/13 10:21:12;;;;;;;;;5.00;5.00;;;;;18.82;46.46;101289.78;5098131;27;45301;-58
2021/11/13 10:23:46;;;;;;;;;5.33;4.67;;;;;18.82;46.30;101282.69;5098193;27;45278;-58
2021/11/13 10:26:13;;;;;;;;;4.67;4.67;;;;;18.83;46.48;101280.88;5098204;27;45477;-58
2021/11/13 10:28:50;;;;;;;;;3.67;3.67;;;;;18.83;46.53;101286.19;5096888;27;46147;-57
2021/11/13 10:31:24;;;;;;;;;5.67;5.00;;;;;18.82;46.61;101274.69;5097603;27;45332;-58
2021/11/13 10:33:52;;;;;;;;;4.00;4.00;;;;;18.83;46.89;101281.75;5101744;27;45455;-58
2021/11/13 10:36:23;;;;;;;;;3.67;3.67;;;;;18.82;46.96;101280.00;5101775;27;45195;-58
2021/11/13 10:38:56;;;;;;;;;5.33;4.33;;;;;18.82;46.71;101277.34;5101200;27;47212;-58
2021/11/13 10:41:21;;;;;;;;;6.33;4.00;;;;;18.82;47.05;101263.13;5101092;27;45233;-60
2021/11/13 10:43:47;;;;;;;;;5.33;4.33;;;;;18.82;46.49;101264.03;5100439;27;45418;-58
2021/11/13 10:46:17;;;;;;;;;4.33;3.67;;;;;18.80;46.81;101265.81;5118695;27;45418;-60
2021/11/13 10:48:46;;;;;;;;;4.00;4.00;;;;;18.83;46.64;101268.44;5122152;27;46354;-59
2021/11/13 10:51:24;;;;;;;;;3.67;3.67;;;;;18.83;46.71;101279.09;5121524;27;45347;-58
2021/11/13 10:53:50;;;;;;;;;3.33;3.33;;;;;18.84;46.84;101283.53;5121884;27;45372;-58
2021/11/13 10:56:17;;;;;;;;;3.67;3.67;;;;;18.83;46.64;101281.75;5121863;27;45505;-58
2021/11/13 10:59:00;;;;;;;;;3.67;3.67;;;;;18.84;46.71;101280.00;5121950;27;45241;-58
2021/11/13 11:01:59;;;;;;;;;3.67;3.67;;;;;18.83;46.33;101279.09;5121473;27;45313;-58
2021/11/13 11:04:28;;;;;;;;;3.67;3.67;;;;;18.84;46.61;101278.22;5078268;28;45514;-57
2021/11/13 11:07:02;;;;;;;;;5.00;3.00;;;;;18.83;46.85;101271.09;5078615;28;45375;-57
2021/11/13 11:09:40;;;;;;;;;6.33;2.67;;;;;18.83;46.64;101265.78;5077851;28;46604;-57
2021/11/13 11:12:17;;;;;;;;;3.67;3.67;;;;;18.84;46.83;101267.56;5078042;28;45394;-58
2021/11/13 11:14:49;;;;;;;;;5.00;4.00;;;;;18.84;47.04;101261.34;5078025;28;45492;-67
2021/11/13 11:17:20;;;;;;;;;3.67;2.33;;;;;18.83;46.63;101260.44;5078252;27;45359;-57